Terminal Aerodrome Forecast
Issued by NWS

Home | Current Version | Previous Version | Text Only | Print | Product List | Glossary On
Versions: 1 2 3 4 5 6 7 8 9 10 11 12 13 14 15 16 17 18 19
070
FTUS42 KFFC 010602 AAA
TAFRYY
TAF AMD
KRYY 010602Z 0106/0206 17003KT P6SM VCSH BKN040 BKN080
      TEMPO 0106/0107 VRB10G15KT -TSRA BKN040CB
     FM011200 21004KT P6SM BKN015
     FM011600 23007KT P6SM VCSH BKN025
     FM011700 23009KT 4SM -TSRA BKN030CB
     FM012000 23006KT P6SM VCSH OVC040
      AMD NOT SKED TIL 011200=

USA.gov is the U.S. government's official web portal to all federal, state and local government web resources and services.